Time;durP1;ratioP1;P1;durP2;ratioP2;P2;SDS_P1;SDS_P2;PMS_P1;PMS_P2;Temp;Humidity;BMP_temperature;BMP_pressure;BME280_temperature;BME280_humidity;BME280_pressure;Samples;Min_cycle;Max_cycle;Signal;HPM_P1;HPM_P2
2021/07/21 00:01:39;;;;;;;12.30;4.70;;;;;;;-145.18;100.00;60484.78;5085904;28;20477;-72
2021/07/21 00:04:04;;;;;;;13.37;5.50;;;;;;;-145.18;100.00;60484.78;5090010;28;20420;-72
2021/07/21 00:06:30;;;;;;;14.03;5.60;;;;;;;-145.18;100.00;60484.78;5085804;28;20031;-72
2021/07/21 00:08:56;;;;;;;13.03;5.67;;;;;;;-145.18;100.00;60484.78;5094546;28;20031;-72
2021/07/21 00:14:18;;;;;;;12.43;5.03;;;;;;;-145.18;100.00;60484.78;5082371;28;20177;-72
2021/07/21 00:16:49;;;;;;;11.90;5.00;;;;;;;-145.18;100.00;60484.78;5087673;28;20036;-72
2021/07/21 00:21:59;;;;;;;13.20;5.13;;;;;;;-145.18;100.00;60484.78;5088899;28;20081;-72
2021/07/21 00:24:24;;;;;;;14.77;5.70;;;;;;;-145.18;100.00;60484.78;5085511;28;20032;-72
2021/07/21 00:26:50;;;;;;;12.67;5.17;;;;;;;-145.18;100.00;60484.78;5086738;28;20039;-72
2021/07/21 00:29:15;;;;;;;12.57;5.23;;;;;;;-145.18;100.00;60484.78;5085830;28;20053;-72
2021/07/21 00:31:41;;;;;;;14.57;5.50;;;;;;;-145.18;100.00;60484.78;5089981;28;20034;-72
2021/07/21 00:34:06;;;;;;;13.10;5.67;;;;;;;-145.18;100.00;60484.78;5087288;28;20020;-72
2021/07/21 00:36:32;;;;;;;13.83;5.33;;;;;;;-145.18;100.00;60484.78;5085644;28;20399;-72
2021/07/21 00:38:58;;;;;;;13.60;5.90;;;;;;;-145.18;100.00;60484.78;5086590;28;20028;-72
2021/07/21 00:41:23;;;;;;;13.73;5.33;;;;;;;-145.18;100.00;60484.78;5085391;28;20028;-72
2021/07/21 00:43:49;;;;;;;13.40;5.60;;;;;;;-145.18;100.00;60484.78;5085782;28;20656;-72
2021/07/21 00:46:14;;;;;;;13.30;6.00;;;;;;;-145.18;100.00;60484.78;5085069;28;20373;-72
2021/07/21 00:48:40;;;;;;;12.93;5.60;;;;;;;-145.18;100.00;60484.78;5085035;28;20027;-72
2021/07/21 00:51:05;;;;;;;12.40;5.03;;;;;;;-145.18;100.00;60484.78;5085546;28;20055;-72
2021/07/21 00:53:31;;;;;;;14.37;6.40;;;;;;;-145.18;100.00;60484.78;5096549;28;20020;-72
2021/07/21 00:55:56;;;;;;;14.13;5.77;;;;;;;-145.18;100.00;60484.78;5085423;28;20043;-72
2021/07/21 00:58:22;;;;;;;14.30;5.47;;;;;;;-145.18;100.00;60484.78;5091866;28;20048;-72
2021/07/21 01:00:48;;;;;;;15.27;6.23;;;;;;;-145.18;100.00;60484.78;5084424;28;20044;-72
2021/07/21 01:03:13;;;;;;;15.57;6.20;;;;;;;-145.18;100.00;60484.78;5081732;28;20453;-72
2021/07/21 01:05:43;;;;;;;15.37;6.17;;;;;;;-145.18;100.00;60484.78;5080158;28;20567;-72
2021/07/21 01:08:12;;;;;;;15.23;5.73;;;;;;;-145.18;100.00;60484.78;5074222;28;20102;-72
2021/07/21 01:10:44;;;;;;;16.20;6.17;;;;;;;-145.18;100.00;60484.78;5082706;28;20751;-72
2021/07/21 01:13:21;;;;;;;15.93;6.32;;;;;;;-145.18;100.00;60484.78;5085940;28;20028;-72
2021/07/21 01:16:07;;;;;;;15.30;5.90;;;;;;;-145.18;100.00;60484.78;5070521;28;20051;-72
2021/07/21 01:18:38;;;;;;;16.17;6.17;;;;;;;-145.18;100.00;60484.78;5089126;28;20111;-72
2021/07/21 01:21:28;;;;;;;11.83;5.10;;;;;;;-145.18;100.00;60484.78;5083879;28;20055;-72
2021/07/21 01:24:40;;;;;;;16.10;6.13;;;;;;;-145.18;100.00;60484.78;5086785;28;20032;-72
2021/07/21 01:27:42;;;;;;;13.00;5.33;;;;;;;-145.18;100.00;60484.78;4996086;28;20108;-72
2021/07/21 01:30:17;;;;;;;14.50;5.13;;;;;;;-145.18;100.00;60484.78;5016670;28;20092;-72
2021/07/21 01:32:46;;;;;;;17.23;6.57;;;;;;;-145.18;100.00;60484.78;5013502;28;20855;-72
2021/07/21 01:35:17;;;;;;;15.73;6.50;;;;;;;-145.18;100.00;60484.78;5011041;28;20032;-72
2021/07/21 01:37:52;;;;;;;15.20;6.60;;;;;;;-145.18;100.00;60484.78;5021770;28;20044;-72
2021/07/21 01:40:21;;;;;;;19.57;6.63;;;;;;;-145.18;100.00;60484.78;5021820;28;20037;-72
2021/07/21 01:42:50;;;;;;;16.07;6.30;;;;;;;-145.18;100.00;60484.78;5020131;28;20530;-72
2021/07/21 01:45:16;;;;;;;14.83;5.67;;;;;;;-145.18;100.00;60484.78;5020279;28;20127;-72
2021/07/21 01:47:44;;;;;;;15.80;6.50;;;;;;;-145.18;100.00;60484.78;5012514;28;20022;-72
2021/07/21 01:50:12;;;;;;;16.23;6.83;;;;;;;-145.18;100.00;60484.78;5019851;28;20120;-72
2021/07/21 01:52:40;;;;;;;18.80;6.37;;;;;;;-145.18;100.00;60484.78;5025564;28;20037;-72
2021/07/21 01:55:07;;;;;;;16.77;6.77;;;;;;;-145.18;100.00;60484.78;5020534;28;20044;-72
2021/07/21 01:57:33;;;;;;;16.63;6.47;;;;;;;-145.18;100.00;60484.78;5029005;28;20032;-72
2021/07/21 02:00:01;;;;;;;18.67;6.40;;;;;;;-145.18;100.00;60484.78;5011547;28;20036;-72
2021/07/21 02:02:28;;;;;;;17.37;6.60;;;;;;;-145.18;100.00;60484.78;5057825;28;20477;-72
2021/07/21 02:04:54;;;;;;;16.87;6.63;;;;;;;-145.18;100.00;60484.78;5078161;28;20086;-72
2021/07/21 02:07:22;;;;;;;14.97;6.50;;;;;;;-145.18;100.00;60484.78;5084063;28;20039;-72
2021/07/21 02:09:49;;;;;;;20.37;6.83;;;;;;;-145.18;100.00;60484.78;5083479;28;20093;-72
2021/07/21 02:12:15;;;;;;;20.57;7.60;;;;;;;-145.18;100.00;60484.78;5089191;28;20504;-72
2021/07/21 02:14:45;;;;;;;18.73;7.13;;;;;;;-145.18;100.00;60484.78;5084198;28;20882;-72
2021/07/21 02:17:12;;;;;;;18.10;6.60;;;;;;;-145.18;100.00;60484.78;5089142;28;20491;-72
2021/07/21 02:19:39;;;;;;;19.00;6.70;;;;;;;-145.18;100.00;60484.78;5083778;28;20039;-72
2021/07/21 02:22:05;;;;;;;19.73;6.97;;;;;;;-145.18;100.00;60484.78;5083281;28;20032;-72
2021/07/21 02:24:32;;;;;;;20.93;7.43;;;;;;;-145.18;100.00;60484.78;5083488;28;20031;-72
2021/07/21 02:26:58;;;;;;;25.53;6.70;;;;;;;-145.18;100.00;60484.78;5086898;28;20030;-72
2021/07/21 02:29:23;;;;;;;20.73;7.67;;;;;;;-145.18;100.00;60484.78;5083463;28;20547;-72
2021/07/21 02:32:14;;;;;;;20.00;6.50;;;;;;;-145.18;100.00;60484.78;5085531;28;20051;-72
2021/07/21 02:34:44;;;;;;;18.03;6.70;;;;;;;-145.18;100.00;60484.78;5073234;28;20554;-72
2021/07/21 02:37:17;;;;;;;21.50;7.93;;;;;;;-145.18;100.00;60484.78;5083986;28;20103;-70
2021/07/21 02:39:50;;;;;;;19.37;7.10;;;;;;;-145.18;100.00;60484.78;5083404;28;20508;-72
2021/07/21 02:42:16;;;;;;;16.97;6.87;;;;;;;-145.18;100.00;60484.78;5088651;28;20019;-72
2021/07/21 02:44:44;;;;;;;17.60;6.67;;;;;;;-145.18;100.00;60484.78;5090331;28;20024;-72
2021/07/21 02:47:10;;;;;;;17.73;6.77;;;;;;;-145.18;100.00;60484.78;5088245;28;20168;-72
2021/07/21 02:49:37;;;;;;;19.83;7.23;;;;;;;-145.18;100.00;60484.78;5089865;28;20622;-72
2021/07/21 02:52:38;;;;;;;18.10;7.23;;;;;;;-145.18;100.00;60484.78;5086606;28;20016;-72
2021/07/21 02:55:27;;;;;;;21.30;7.80;;;;;;;-145.18;100.00;60484.78;5036929;28;20059;-69
2021/07/21 02:58:09;;;;;;;19.20;6.97;;;;;;;-145.18;100.00;60484.78;5092804;28;20031;-70
2021/07/21 03:00:35;;;;;;;20.23;7.85;;;;;;;-145.18;100.00;60484.78;5083092;28;20043;-70
2021/07/21 03:03:05;;;;;;;20.63;7.50;;;;;;;-145.18;100.00;60484.78;5084378;28;20096;-70
2021/07/21 03:05:33;;;;;;;21.70;7.30;;;;;;;-145.18;100.00;60484.78;5072832;28;20153;-70
2021/07/21 03:08:00;;;;;;;30.83;8.17;;;;;;;-145.18;100.00;60484.78;5091204;28;20057;-71
2021/07/21 03:10:28;;;;;;;21.30;7.03;;;;;;;-145.18;100.00;60484.78;5083130;28;20099;-70
2021/07/21 03:13:04;;;;;;;27.40;9.07;;;;;;;-145.18;100.00;60484.78;5089994;28;20036;-71
2021/07/21 03:15:33;;;;;;;22.03;8.00;;;;;;;-145.18;100.00;60484.78;5082458;28;20044;-69
2021/07/21 03:18:07;;;;;;;19.80;7.63;;;;;;;-145.18;100.00;60484.78;5088962;28;20134;-71
2021/07/21 03:20:33;;;;;;;24.83;8.27;;;;;;;-145.18;100.00;60484.78;5082579;28;20020;-69
2021/07/21 03:23:03;;;;;;;21.30;7.93;;;;;;;-145.18;100.00;60484.78;5087360;28;20035;-69
2021/07/21 03:25:30;;;;;;;26.50;9.00;;;;;;;-145.18;100.00;60484.78;5082257;28;20024;-70
2021/07/21 03:27:56;;;;;;;23.77;8.03;;;;;;;-145.18;100.00;60484.78;5086524;28;20024;-69
2021/07/21 03:30:24;;;;;;;23.53;7.80;;;;;;;-145.18;100.00;60484.78;5081763;28;20020;-70
2021/07/21 03:32:51;;;;;;;23.23;8.10;;;;;;;-145.18;100.00;60484.78;5082969;28;20031;-70
2021/07/21 03:35:19;;;;;;;24.47;8.10;;;;;;;-145.18;100.00;60484.78;5081921;28;20052;-70
2021/07/21 03:37:46;;;;;;;20.97;7.40;;;;;;;-145.18;100.00;60484.78;5083444;28;20074;-70
2021/07/21 03:40:13;;;;;;;22.33;7.80;;;;;;;-145.18;100.00;60484.78;5082420;28;20683;-70
2021/07/21 03:42:40;;;;;;;23.07;8.47;;;;;;;-145.18;100.00;60484.78;5082666;28;20119;-70
2021/07/21 03:45:11;;;;;;;23.90;8.37;;;;;;;-145.18;100.00;60484.78;5081998;28;20085;-71
2021/07/21 03:47:39;;;;;;;24.93;8.63;;;;;;;-145.18;100.00;60484.78;5081497;28;20016;-71
2021/07/21 03:50:06;;;;;;;28.60;9.47;;;;;;;-145.18;100.00;60484.78;5081894;28;20758;-70
2021/07/21 03:52:33;;;;;;;23.07;7.63;;;;;;;-145.18;100.00;60484.78;5089861;28;20435;-71
2021/07/21 03:54:59;;;;;;;21.40;7.97;;;;;;;-145.18;100.00;60484.78;5085631;28;20688;-70
2021/07/21 03:57:26;;;;;;;27.47;8.50;;;;;;;-145.18;100.00;60484.78;5083550;28;20067;-70
2021/07/21 03:59:51;;;;;;;24.13;8.23;;;;;;;-145.18;100.00;60484.78;5082424;28;20604;-70
2021/07/21 04:02:17;;;;;;;26.73;9.03;;;;;;;-145.18;100.00;60484.78;5082892;28;20028;-70
2021/07/21 04:04:45;;;;;;;26.53;9.07;;;;;;;-145.18;100.00;60484.78;5077828;28;20676;-70
2021/07/21 04:07:15;;;;;;;26.67;9.07;;;;;;;-145.18;100.00;60484.78;5087118;28;20392;-70
2021/07/21 04:09:43;;;;;;;32.83;9.73;;;;;;;-145.18;100.00;60484.78;5081755;28;20070;-70
2021/07/21 04:12:14;;;;;;;33.27;9.57;;;;;;;-145.18;100.00;60484.78;5086833;28;20435;-70
2021/07/21 04:14:43;;;;;;;26.90;8.63;;;;;;;-145.18;100.00;60484.78;5083589;28;20127;-69
2021/07/21 04:17:09;;;;;;;23.73;8.60;;;;;;;-145.18;100.00;60484.78;5086531;28;20413;-69
2021/07/21 04:19:37;;;;;;;21.43;8.67;;;;;;;-145.18;100.00;60484.78;5082774;28;20633;-69
2021/07/21 04:22:03;;;;;;;22.97;8.30;;;;;;;-145.18;100.00;60484.78;5085511;28;20032;-70
2021/07/21 04:24:29;;;;;;;25.07;8.97;;;;;;;-145.18;100.00;60484.78;5096130;28;20028;-70
2021/07/21 04:26:56;;;;;;;22.03;8.00;;;;;;;-145.18;100.00;60484.78;5084536;28;20059;-70
2021/07/21 04:29:25;;;;;;;22.03;8.20;;;;;;;-145.18;100.00;60484.78;5082823;28;20024;-70
2021/07/21 04:31:51;;;;;;;23.17;9.13;;;;;;;-145.18;100.00;60484.78;5084336;28;20032;-70
2021/07/21 04:34:18;;;;;;;23.53;8.50;;;;;;;-145.18;100.00;60484.78;5083858;28;20928;-69
2021/07/21 04:36:45;;;;;;;22.13;7.77;;;;;;;-145.18;100.00;60484.78;5086555;28;20499;-69
2021/07/21 04:39:14;;;;;;;19.70;8.00;;;;;;;-145.18;100.00;60484.78;5087005;28;20027;-69
2021/07/21 04:41:41;;;;;;;20.10;8.53;;;;;;;-145.18;100.00;60484.78;5086141;28;20028;-69
2021/07/21 04:44:06;;;;;;;20.33;7.83;;;;;;;-145.18;100.00;60484.78;5085510;28;20031;-69
2021/07/21 04:46:33;;;;;;;22.80;8.17;;;;;;;-145.18;100.00;60484.78;5085008;28;20086;-69
2021/07/21 04:49:00;;;;;;;19.00;6.90;;;;;;;-145.18;100.00;60484.78;5084953;28;20043;-69
2021/07/21 04:51:27;;;;;;;18.70;7.60;;;;;;;-145.18;100.00;60484.78;5083987;28;20024;-69
2021/07/21 04:53:55;;;;;;;19.60;7.13;;;;;;;-145.18;100.00;60484.78;5089974;28;20020;-69
2021/07/21 04:56:22;;;;;;;20.47;7.73;;;;;;;-145.18;100.00;60484.78;5084638;28;20066;-69
2021/07/21 04:58:51;;;;;;;16.23;6.90;;;;;;;-145.18;100.00;60484.78;5085061;28;20020;-69
2021/07/21 05:01:17;;;;;;;19.70;6.83;;;;;;;-145.18;100.00;60484.78;5085131;28;20023;-69
2021/07/21 05:03:42;;;;;;;16.07;7.30;;;;;;;-145.18;100.00;60484.78;5085460;28;20031;-69
2021/07/21 05:06:08;;;;;;;15.10;6.80;;;;;;;-145.18;100.00;60484.78;5083923;28;20766;-69
2021/07/21 05:08:34;;;;;;;16.57;6.83;;;;;;;-145.18;100.00;60484.78;5092213;28;20031;-69
2021/07/21 05:10:59;;;;;;;16.47;6.90;;;;;;;-145.18;100.00;60484.78;5084738;28;20029;-69
2021/07/21 05:13:25;;;;;;;14.03;6.00;;;;;;;-145.18;100.00;60484.78;5091585;28;20071;-69
2021/07/21 05:15:51;;;;;;;16.63;6.90;;;;;;;-145.18;100.00;60484.78;5084523;28;20028;-69
2021/07/21 05:18:16;;;;;;;16.40;6.57;;;;;;;-145.18;100.00;60484.78;5090662;28;20032;-69
2021/07/21 05:20:42;;;;;;;20.43;7.40;;;;;;;-145.18;100.00;60484.78;5084882;28;20031;-69
2021/07/21 05:23:08;;;;;;;14.70;6.63;;;;;;;-145.18;100.00;60484.78;5090030;28;20107;-69
2021/07/21 05:25:37;;;;;;;15.35;6.07;;;;;;;-145.18;100.00;60484.78;5084829;28;20530;-69
2021/07/21 05:28:05;;;;;;;15.65;7.03;;;;;;;-145.18;100.00;60484.78;5088430;28;20035;-69
2021/07/21 05:30:30;;;;;;;17.75;7.28;;;;;;;-145.18;100.00;60484.78;5084494;28;20023;-69
2021/07/21 05:32:56;;;;;;;17.30;7.00;;;;;;;-145.18;100.00;60484.78;5087356;28;20028;-69
2021/07/21 05:35:21;;;;;;;15.93;6.47;;;;;;;-145.18;100.00;60484.78;5084418;28;20024;-69
2021/07/21 05:37:47;;;;;;;18.50;6.57;;;;;;;-145.18;100.00;60484.78;5082950;28;20032;-69
2021/07/21 05:40:13;;;;;;;13.48;6.57;;;;;;;-145.18;100.00;60484.78;5084129;28;20416;-69
2021/07/21 05:42:38;;;;;;;14.68;6.25;;;;;;;-145.18;100.00;60484.78;5084932;28;20032;-69
2021/07/21 05:45:05;;;;;;;17.65;6.78;;;;;;;-145.18;100.00;60484.78;5083874;28;20051;-69
2021/07/21 05:47:30;;;;;;;15.68;6.88;;;;;;;-145.18;100.00;60484.78;5092388;28;20027;-69
2021/07/21 05:49:56;;;;;;;15.25;6.07;;;;;;;-145.18;100.00;60484.78;5089637;28;20119;-70
2021/07/21 05:52:21;;;;;;;12.20;5.78;;;;;;;-145.18;100.00;60484.78;5090542;28;20015;-70
2021/07/21 05:54:47;;;;;;;14.05;5.55;;;;;;;-145.18;100.00;60484.78;5089911;28;20091;-69
2021/07/21 05:57:12;;;;;;;13.68;6.15;;;;;;;-145.18;100.00;60484.78;5089789;28;20703;-70
2021/07/21 05:59:38;;;;;;;12.07;5.43;;;;;;;-145.18;100.00;60484.78;5088835;28;20124;-70
2021/07/21 06:02:03;;;;;;;12.75;5.93;;;;;;;-145.18;100.00;60484.78;5085194;28;20024;-70
2021/07/21 06:04:29;;;;;;;14.30;6.10;;;;;;;-145.18;100.00;60484.78;5084016;28;20016;-70
2021/07/21 06:06:54;;;;;;;15.32;5.85;;;;;;;-145.18;100.00;60484.78;5098533;28;20040;-70
2021/07/21 06:09:20;;;;;;;16.25;5.88;;;;;;;-145.18;100.00;60484.78;5088703;28;20051;-70
2021/07/21 06:11:45;;;;;;;11.65;5.93;;;;;;;-145.18;100.00;60484.78;5085550;28;20031;-70
2021/07/21 06:14:11;;;;;;;15.02;6.07;;;;;;;-145.18;100.00;60484.78;5088832;28;20066;-70
2021/07/21 06:16:37;;;;;;;12.77;5.35;;;;;;;-145.18;100.00;60484.78;5084074;28;20020;-70
2021/07/21 06:19:03;;;;;;;16.13;6.03;;;;;;;-145.18;100.00;60484.78;5089005;28;20107;-70
2021/07/21 06:21:29;;;;;;;14.05;6.47;;;;;;;-145.18;100.00;60484.78;5083559;28;20048;-70
2021/07/21 06:23:54;;;;;;;14.98;5.97;;;;;;;-145.18;100.00;60484.78;5088447;28;20649;-70
2021/07/21 06:26:20;;;;;;;12.23;5.72;;;;;;;-145.18;100.00;60484.78;5085268;28;20027;-69
2021/07/21 06:28:45;;;;;;;12.85;6.13;;;;;;;-145.18;100.00;60484.78;5087381;28;20016;-69
2021/07/21 06:31:11;;;;;;;14.27;6.05;;;;;;;-145.18;100.00;60484.78;5083220;28;20024;-69
2021/07/21 06:33:37;;;;;;;14.05;5.35;;;;;;;-145.18;100.00;60484.78;5085993;28;20027;-69
2021/07/21 06:36:03;;;;;;;13.88;5.30;;;;;;;-145.18;100.00;60484.78;5083654;28;20034;-69
2021/07/21 06:38:29;;;;;;;12.73;5.53;;;;;;;-145.18;100.00;60484.78;5084488;28;20404;-69
2021/07/21 06:40:57;;;;;;;13.70;5.40;;;;;;;-145.18;100.00;60484.78;5083033;28;20024;-69
2021/07/21 06:43:23;;;;;;;12.87;5.50;;;;;;;-145.18;100.00;60484.78;5083450;28;20028;-69
2021/07/21 06:45:48;;;;;;;16.77;5.80;;;;;;;-145.18;100.00;60484.78;5083467;28;20055;-69
2021/07/21 06:48:14;;;;;;;11.43;5.03;;;;;;;-145.18;100.00;60484.78;5095926;28;20376;-69
2021/07/21 06:50:40;;;;;;;16.87;6.50;;;;;;;-145.18;100.00;60484.78;5083149;28;20422;-69
2021/07/21 06:53:06;;;;;;;13.30;5.70;;;;;;;-145.18;100.00;60484.78;5094645;28;20038;-69
2021/07/21 06:55:34;;;;;;;13.97;5.60;;;;;;;-145.18;100.00;60484.78;5083008;28;20042;-69
2021/07/21 06:58:01;;;;;;;14.53;5.70;;;;;;;-145.18;100.00;60484.78;5092688;28;20508;-69
2021/07/21 07:00:27;;;;;;;16.77;5.97;;;;;;;-145.18;100.00;60484.78;5083163;28;20258;-69
2021/07/21 07:02:52;;;;;;;13.93;5.73;;;;;;;-145.18;100.00;60484.78;5083554;28;20138;-69
2021/07/21 07:05:18;;;;;;;12.37;5.37;;;;;;;-145.18;100.00;60484.78;5082999;28;20380;-69
2021/07/21 07:07:44;;;;;;;14.50;5.70;;;;;;;-145.18;100.00;60484.78;5090933;28;20020;-69
2021/07/21 07:10:10;;;;;;;14.57;5.37;;;;;;;-145.18;100.00;60484.78;5082778;28;20031;-70
2021/07/21 07:12:36;;;;;;;15.80;5.93;;;;;;;-145.18;100.00;60484.78;5089600;28;20544;-70
2021/07/21 07:15:06;;;;;;;12.37;5.43;;;;;;;-145.18;100.00;60484.78;5082706;28;20047;-70
2021/07/21 07:17:32;;;;;;;15.23;5.90;;;;;;;-145.18;100.00;60484.78;5087455;28;20214;-70
2021/07/21 07:19:57;;;;;;;13.63;5.73;;;;;;;-145.18;100.00;60484.78;5083089;28;20495;-70
2021/07/21 07:22:23;;;;;;;13.37;5.97;;;;;;;-145.18;100.00;60484.78;5086831;28;20035;-70
2021/07/21 07:24:48;;;;;;;11.70;4.87;;;;;;;-145.18;100.00;60484.78;5082886;28;20077;-70
2021/07/21 07:27:14;;;;;;;11.53;5.07;;;;;;;-145.18;100.00;60484.78;5085828;28;20114;-70
2021/07/21 07:29:40;;;;;;;12.10;5.20;;;;;;;-145.18;100.00;60484.78;5082490;28;20026;-69
2021/07/21 07:32:06;;;;;;;13.03;5.53;;;;;;;-145.18;100.00;60484.78;5084553;28;20023;-69
2021/07/21 07:34:32;;;;;;;12.60;4.90;;;;;;;-145.18;100.00;60484.78;5082678;28;20054;-70
2021/07/21 07:36:58;;;;;;;15.97;5.30;;;;;;;-145.18;100.00;60484.78;5083223;28;20440;-69
2021/07/21 07:39:24;;;;;;;11.00;5.07;;;;;;;-145.18;100.00;60484.78;5082654;28;20035;-69
2021/07/21 07:41:50;;;;;;;14.00;5.43;;;;;;;-145.18;100.00;60484.78;5084312;28;20024;-70
2021/07/21 07:44:16;;;;;;;13.18;5.25;;;;;;;-145.18;100.00;60484.78;5093438;28;20028;-70
2021/07/21 07:46:42;;;;;;;13.13;5.37;;;;;;;-145.18;100.00;60484.78;5072058;28;20118;-70
2021/07/21 07:49:08;;;;;;;13.70;5.60;;;;;;;-145.18;100.00;60484.78;5093276;28;20020;-70
2021/07/21 07:51:36;;;;;;;12.32;5.05;;;;;;;-145.18;100.00;60484.78;5081970;28;20036;-70
2021/07/21 07:54:03;;;;;;;11.85;5.22;;;;;;;-145.18;100.00;60484.78;5071320;28;20495;-70
2021/07/21 07:56:32;;;;;;;14.90;5.78;;;;;;;-145.18;100.00;60484.78;5081978;28;20375;-70
2021/07/21 07:58:58;;;;;;;15.25;5.40;;;;;;;-145.18;100.00;60484.78;5092158;28;20039;-70
2021/07/21 08:01:23;;;;;;;13.23;5.60;;;;;;;-145.18;100.00;60484.78;5082405;28;20028;-70
2021/07/21 08:03:49;;;;;;;13.23;5.40;;;;;;;-145.18;100.00;60484.78;5082838;28;20063;-70
2021/07/21 08:06:14;;;;;;;13.70;5.28;;;;;;;-145.18;100.00;60484.78;5082277;28;20059;-70
2021/07/21 08:08:40;;;;;;;10.32;4.68;;;;;;;-145.18;100.00;60484.78;5092135;28;20027;-70
2021/07/21 08:11:06;;;;;;;11.88;4.88;;;;;;;-145.18;100.00;60484.78;5086404;28;20024;-70
2021/07/21 08:13:32;;;;;;;11.95;4.90;;;;;;;-145.18;100.00;60484.78;5093041;28;20048;-70
2021/07/21 08:15:58;;;;;;;13.93;5.65;;;;;;;-145.18;100.00;60484.78;5086158;28;20027;-70
2021/07/21 08:18:24;;;;;;;13.10;5.68;;;;;;;-145.18;100.00;60484.78;5092152;28;20023;-70
2021/07/21 08:20:50;;;;;;;13.75;5.63;;;;;;;-145.18;100.00;60484.78;5085996;28;20022;-70
2021/07/21 08:23:16;;;;;;;13.52;5.45;;;;;;;-145.18;100.00;60484.78;5090876;28;20089;-70
2021/07/21 08:25:45;;;;;;;12.90;5.35;;;;;;;-145.18;100.00;60484.78;5085824;28;20128;-70
2021/07/21 08:28:14;;;;;;;13.00;5.72;;;;;;;-145.18;100.00;60484.78;5089624;28;20035;-70
2021/07/21 08:30:40;;;;;;;14.50;5.95;;;;;;;-145.18;100.00;60484.78;5085856;28;20028;-70
2021/07/21 08:33:06;;;;;;;12.10;5.57;;;;;;;-145.18;100.00;60484.78;5088764;28;20024;-70
2021/07/21 08:35:32;;;;;;;11.07;5.28;;;;;;;-145.18;100.00;60484.78;5085569;28;20483;-70
2021/07/21 08:37:58;;;;;;;12.60;5.70;;;;;;;-145.18;100.00;60484.78;5087453;28;20049;-70
2021/07/21 08:40:26;;;;;;;14.18;5.95;;;;;;;-145.18;100.00;60484.78;5085812;28;20028;-70
2021/07/21 08:42:53;;;;;;;13.57;5.07;;;;;;;-145.18;100.00;60484.78;5086090;28;20024;-70
2021/07/21 08:45:19;;;;;;;11.70;5.07;;;;;;;-145.18;100.00;60484.78;5085389;28;20028;-70
2021/07/21 08:47:45;;;;;;;11.45;4.60;;;;;;;-145.18;100.00;60484.78;5095313;28;20447;-70
2021/07/21 08:50:11;;;;;;;11.57;4.60;;;;;;;-145.18;100.00;60484.78;5088532;28;20043;-70
2021/07/21 08:52:37;;;;;;;10.75;4.45;;;;;;;-145.18;100.00;60484.78;5094249;28;20077;-70
2021/07/21 08:55:07;;;;;;;12.43;5.05;;;;;;;-145.18;100.00;60484.78;5087850;28;20043;-70
2021/07/21 08:57:34;;;;;;;11.52;4.90;;;;;;;-145.18;100.00;60484.78;5093376;28;20032;-70
2021/07/21 09:00:00;;;;;;;10.57;4.63;;;;;;;-145.18;100.00;60484.78;5087426;28;20020;-70
2021/07/21 09:02:26;;;;;;;13.00;5.05;;;;;;;-145.18;100.00;60484.78;5086167;28;20099;-70
2021/07/21 09:04:52;;;;;;;12.43;4.70;;;;;;;-145.18;100.00;60484.78;5074768;28;20055;-70
2021/07/21 09:07:19;;;;;;;12.15;5.05;;;;;;;-145.18;100.00;60484.78;5091037;28;20027;-70
2021/07/21 09:09:45;;;;;;;11.23;4.50;;;;;;;-145.18;100.00;60484.78;5086608;28;20416;-70
2021/07/21 09:12:11;;;;;;;9.52;5.00;;;;;;;-145.18;100.00;60484.78;5089807;28;20030;-70
2021/07/21 09:14:39;;;;;;;10.27;4.70;;;;;;;-145.18;100.00;60484.78;5086309;28;20377;-71
2021/07/21 09:17:16;;;;;;;8.38;3.88;;;;;;;-145.18;100.00;60484.78;5088715;28;20743;-70
2021/07/21 09:19:45;;;;;;;12.90;5.15;;;;;;;-145.18;100.00;60484.78;5070694;28;20024;-70
2021/07/21 09:22:16;;;;;;;11.15;4.32;;;;;;;-145.18;100.00;60484.78;5089626;28;20035;-70
2021/07/21 09:24:42;;;;;;;11.57;4.38;;;;;;;-145.18;100.00;60484.78;5084945;28;20441;-70
2021/07/21 09:27:07;;;;;;;10.30;4.68;;;;;;;-145.18;100.00;60484.78;5087790;28;20055;-70
2021/07/21 09:29:33;;;;;;;11.40;5.10;;;;;;;-145.18;100.00;60484.78;5084368;28;20055;-70
2021/07/21 09:32:00;;;;;;;10.27;4.60;;;;;;;-145.18;100.00;60484.78;5086681;28;20069;-70
2021/07/21 09:34:26;;;;;;;12.02;4.85;;;;;;;-145.18;100.00;60484.78;5084690;28;20115;-70
2021/07/21 09:37:13;;;;;;;11.40;5.03;;;;;;;-145.18;100.00;60484.78;5085176;28;20024;-70
2021/07/21 09:39:40;;;;;;;10.25;4.47;;;;;;;-145.18;100.00;60484.78;5084585;28;20067;-70
2021/07/21 09:42:08;;;;;;;13.82;5.07;;;;;;;-145.18;100.00;60484.78;5084472;28;20032;-70
2021/07/21 09:44:42;;;;;;;10.48;4.70;;;;;;;-145.18;100.00;60484.78;5084417;28;20024;-70
2021/07/21 09:47:20;;;;;;;9.45;4.15;;;;;;;-145.18;100.00;60484.78;5085215;28;20590;-70
2021/07/21 09:49:46;;;;;;;10.85;4.68;;;;;;;-145.18;100.00;60484.78;5090774;28;20711;-70
2021/07/21 09:52:23;;;;;;;12.55;4.40;;;;;;;-145.18;100.00;60484.78;5084538;28;20031;-70
2021/07/21 09:55:10;;;;;;;12.73;5.03;;;;;;;-145.18;100.00;60484.78;5084202;28;20032;-70
2021/07/21 09:57:36;;;;;;;11.68;5.30;;;;;;;-145.18;100.00;60484.78;5092692;28;20471;-70
2021/07/21 10:00:26;;;;;;;11.13;4.32;;;;;;;-145.18;100.00;60484.78;5085549;28;20731;-70
2021/07/21 10:03:07;;;;;;;10.57;4.13;;;;;;;-145.18;100.00;60484.78;5085095;28;20101;-70
2021/07/21 10:05:33;;;;;;;10.20;4.47;;;;;;;-145.18;100.00;60484.78;5074273;28;20024;-71
2021/07/21 10:08:02;;;;;;;12.07;4.80;;;;;;;-145.18;100.00;60484.78;5092070;28;20051;-71
2021/07/21 10:10:29;;;;;;;9.57;4.47;;;;;;;-145.18;100.00;60484.78;5084073;28;20028;-71
2021/07/21 10:13:06;;;;;;;10.52;4.55;;;;;;;-145.18;100.00;60484.78;5091223;28;20028;-71
2021/07/21 10:15:33;;;;;;;13.30;4.38;;;;;;;-145.18;100.00;60484.78;5083655;28;20436;-71
2021/07/21 10:18:10;;;;;;;9.40;3.72;;;;;;;-145.18;100.00;60484.78;5089878;28;20028;-71
2021/07/21 10:20:38;;;;;;;9.50;4.40;;;;;;;-145.18;100.00;60484.78;5083862;28;20028;-71
2021/07/21 10:23:04;;;;;;;8.57;3.72;;;;;;;-145.18;100.00;60484.78;5089638;28;20480;-71
2021/07/21 10:25:30;;;;;;;10.90;3.67;;;;;;;-145.18;100.00;60484.78;5083694;28;20038;-71
2021/07/21 10:28:03;;;;;;;7.28;3.50;;;;;;;-145.18;100.00;60484.78;5088454;28;20035;-71
2021/07/21 10:30:30;;;;;;;8.68;4.03;;;;;;;-145.18;100.00;60484.78;5083411;28;20090;-71
2021/07/21 10:32:57;;;;;;;9.20;3.90;;;;;;;-145.18;100.00;60484.78;5087829;28;20028;-71
2021/07/21 10:35:24;;;;;;;6.88;3.30;;;;;;;-145.18;100.00;60484.78;5083625;28;20048;-71
2021/07/21 10:37:50;;;;;;;9.88;4.03;;;;;;;-145.18;100.00;60484.78;5086631;28;20024;-71
2021/07/21 10:40:18;;;;;;;7.32;3.55;;;;;;;-145.18;100.00;60484.78;5083337;28;20400;-70
2021/07/21 10:42:50;;;;;;;8.75;3.95;;;;;;;-145.18;100.00;60484.78;5084874;28;20028;-70
2021/07/21 10:45:20;;;;;;;8.27;3.50;;;;;;;-145.18;100.00;60484.78;5083188;28;20024;-70
2021/07/21 10:47:52;;;;;;;8.32;3.53;;;;;;;-145.18;100.00;60484.78;5083665;28;20027;-70
2021/07/21 10:50:43;;;;;;;9.65;3.60;;;;;;;-145.18;100.00;60484.78;5083217;28;20028;-70
2021/07/21 10:59:22;;;;;;;8.63;3.72;;;;;;;-145.18;100.00;60484.78;5082933;28;20166;-70
2021/07/21 11:02:06;;;;;;;9.38;3.65;;;;;;;-145.18;100.00;60484.78;5083891;28;20035;-71
2021/07/21 11:04:42;;;;;;;8.30;3.53;;;;;;;-145.18;100.00;60484.78;5074512;28;20044;-71
2021/07/21 11:07:08;;;;;;;8.73;3.95;;;;;;;-145.18;100.00;60484.78;5077520;28;20032;-71
2021/07/21 11:09:38;;;;;;;9.05;3.92;;;;;;;-145.18;100.00;60484.78;5077082;28;20358;-71
2021/07/21 11:12:04;;;;;;;12.43;4.45;;;;;;;-145.18;100.00;60484.78;5081870;28;20116;-71
2021/07/21 11:14:34;;;;;;;9.98;4.28;;;;;;;-145.18;100.00;60484.78;5074708;28;20044;-71
2021/07/21 11:17:13;;;;;;;7.27;3.63;;;;;;;-145.18;100.00;60484.78;5058771;28;20444;-72
2021/07/21 11:19:46;;;;;;;9.10;3.55;;;;;;;-145.18;100.00;60484.78;5061252;28;20020;-71